sensor_id;sensor_type;location;lat;lon;timestamp;temperature;humidity
65122;HTU21D;51701;45.036;38.924;2022-08-19T00:00:15;23.11;91.28
65122;HTU21D;51701;45.036;38.924;2022-08-19T00:02:41;23.11;92.26
65122;HTU21D;51701;45.036;38.924;2022-08-19T00:05:08;23.16;91.47
65122;HTU21D;51701;45.036;38.924;2022-08-19T00:07:33;23.09;90.43
65122;HTU21D;51701;45.036;38.924;2022-08-19T00:09:59;0.00;92.06
65122;HTU21D;51701;45.036;38.924;2022-08-19T00:12:25;23.10;90.43
65122;HTU21D;51701;45.036;38.924;2022-08-19T00:14:51;23.07;89.79
65122;HTU21D;51701;45.036;38.924;2022-08-19T00:17:19;23.13;91.97
65122;HTU21D;51701;45.036;38.924;2022-08-19T00:19:45;23.17;90.29
65122;HTU21D;51701;45.036;38.924;2022-08-19T00:22:11;23.18;91.31
65122;HTU21D;51701;45.036;38.924;2022-08-19T00:24:37;23.21;90.34
65122;HTU21D;51701;45.036;38.924;2022-08-19T00:27:04;0.00;93.41
65122;HTU21D;51701;45.036;38.924;2022-08-19T00:29:30;23.23;93.27
65122;HTU21D;51701;45.036;38.924;2022-08-19T00:31:56;23.26;90.84
65122;HTU21D;51701;45.036;38.924;2022-08-19T00:34:24;23.18;90.19
65122;HTU21D;51701;45.036;38.924;2022-08-19T00:36:50;23.17;90.72
65122;HTU21D;51701;45.036;38.924;2022-08-19T00:39:16;23.18;89.59
65122;HTU21D;51701;45.036;38.924;2022-08-19T00:41:42;23.15;91.52
65122;HTU21D;51701;45.036;38.924;2022-08-19T00:44:16;23.17;90.02
65122;HTU21D;51701;45.036;38.924;2022-08-19T00:46:44;0.00;92.73
65122;HTU21D;51701;45.036;38.924;2022-08-19T00:49:23;23.24;90.56
65122;HTU21D;51701;45.036;38.924;2022-08-19T00:51:53;0.00;90.92
65122;HTU21D;51701;45.036;38.924;2022-08-19T00:54:21;23.24;90.54
65122;HTU21D;51701;45.036;38.924;2022-08-19T00:56:47;23.22;90.00
65122;HTU21D;51701;45.036;38.924;2022-08-19T00:59:13;0.00;90.34
65122;HTU21D;51701;45.036;38.924;2022-08-19T01:01:40;23.22;89.95
65122;HTU21D;51701;45.036;38.924;2022-08-19T01:04:07;23.17;89.64
65122;HTU21D;51701;45.036;38.924;2022-08-19T01:06:33;0.00;95.49
65122;HTU21D;51701;45.036;38.924;2022-08-19T01:08:59;23.17;92.29
65122;HTU21D;51701;45.036;38.924;2022-08-19T01:11:26;23.06;91.72
65122;HTU21D;51701;45.036;38.924;2022-08-19T01:13:52;23.02;93.40
65122;HTU21D;51701;45.036;38.924;2022-08-19T01:16:19;22.94;91.66
65122;HTU21D;51701;45.036;38.924;2022-08-19T01:18:45;22.88;96.26
65122;HTU21D;51701;45.036;38.924;2022-08-19T01:23:56;22.82;93.93
65122;HTU21D;51701;45.036;38.924;2022-08-19T01:26:22;0.00;94.47
65122;HTU21D;51701;45.036;38.924;2022-08-19T01:28:49;22.68;94.37
65122;HTU21D;51701;45.036;38.924;2022-08-19T01:31:18;22.62;95.37
65122;HTU21D;51701;45.036;38.924;2022-08-19T01:33:46;22.62;95.82
65122;HTU21D;51701;45.036;38.924;2022-08-19T01:36:13;22.57;95.01
65122;HTU21D;51701;45.036;38.924;2022-08-19T01:38:40;22.53;97.81
65122;HTU21D;51701;45.036;38.924;2022-08-19T01:41:08;0.00;94.40
65122;HTU21D;51701;45.036;38.924;2022-08-19T01:43:34;22.44;93.75
65122;HTU21D;51701;45.036;38.924;2022-08-19T01:46:00;22.48;96.75
65122;HTU21D;51701;45.036;38.924;2022-08-19T01:48:26;0.00;94.50
65122;HTU21D;51701;45.036;38.924;2022-08-19T01:50:54;22.41;93.99
65122;HTU21D;51701;45.036;38.924;2022-08-19T01:53:21;22.41;97.16
65122;HTU21D;51701;45.036;38.924;2022-08-19T01:55:46;22.50;95.97
65122;HTU21D;51701;45.036;38.924;2022-08-19T01:58:15;22.46;94.43
65122;HTU21D;51701;45.036;38.924;2022-08-19T02:00:43;22.44;95.10
65122;HTU21D;51701;45.036;38.924;2022-08-19T02:03:10;22.43;94.24
65122;HTU21D;51701;45.036;38.924;2022-08-19T02:05:37;22.42;97.54
65122;HTU21D;51701;45.036;38.924;2022-08-19T02:08:03;22.44;95.61
65122;HTU21D;51701;45.036;38.924;2022-08-19T02:10:29;22.38;94.66
65122;HTU21D;51701;45.036;38.924;2022-08-19T02:12:54;0.00;100.04
65122;HTU21D;51701;45.036;38.924;2022-08-19T02:15:20;22.41;96.18
65122;HTU21D;51701;45.036;38.924;2022-08-19T02:17:47;22.37;96.44
65122;HTU21D;51701;45.036;38.924;2022-08-19T02:20:13;22.47;96.55
65122;HTU21D;51701;45.036;38.924;2022-08-19T02:22:40;22.47;95.04
65122;HTU21D;51701;45.036;38.924;2022-08-19T02:25:08;0.00;96.91
65122;HTU21D;51701;45.036;38.924;2022-08-19T02:27:34;22.47;95.22
65122;HTU21D;51701;45.036;38.924;2022-08-19T02:30:00;22.44;96.78
65122;HTU21D;51701;45.036;38.924;2022-08-19T02:32:26;22.48;94.74
65122;HTU21D;51701;45.036;38.924;2022-08-19T02:34:52;0.00;94.41
65122;HTU21D;51701;45.036;38.924;2022-08-19T02:37:18;22.51;96.18
65122;HTU21D;51701;45.036;38.924;2022-08-19T02:40:02;22.54;94.11
65122;HTU21D;51701;45.036;38.924;2022-08-19T02:42:28;22.58;97.09
65122;HTU21D;51701;45.036;38.924;2022-08-19T02:44:55;22.76;95.65
65122;HTU21D;51701;45.036;38.924;2022-08-19T02:47:20;22.87;94.03
65122;HTU21D;51701;45.036;38.924;2022-08-19T02:49:46;22.93;93.27
65122;HTU21D;51701;45.036;38.924;2022-08-19T02:52:15;23.07;94.65
65122;HTU21D;51701;45.036;38.924;2022-08-19T02:54:41;0.00;93.39
65122;HTU21D;51701;45.036;38.924;2022-08-19T02:57:06;23.27;92.49
65122;HTU21D;51701;45.036;38.924;2022-08-19T02:59:33;0.00;92.95
65122;HTU21D;51701;45.036;38.924;2022-08-19T03:01:59;23.59;91.77
65122;HTU21D;51701;45.036;38.924;2022-08-19T03:04:24;23.81;90.98
65122;HTU21D;51701;45.036;38.924;2022-08-19T03:06:50;24.04;89.70
65122;HTU21D;51701;45.036;38.924;2022-08-19T03:09:17;24.19;89.53
65122;HTU21D;51701;45.036;38.924;2022-08-19T03:11:43;24.50;88.63
65122;HTU21D;51701;45.036;38.924;2022-08-19T03:14:09;0.00;86.99
65122;HTU21D;51701;45.036;38.924;2022-08-19T03:16:39;24.69;85.90
65122;HTU21D;51701;45.036;38.924;2022-08-19T03:19:05;24.75;85.67
65122;HTU21D;51701;45.036;38.924;2022-08-19T03:21:32;24.75;85.42
65122;HTU21D;51701;45.036;38.924;2022-08-19T03:23:59;24.79;84.81
65122;HTU21D;51701;45.036;38.924;2022-08-19T03:26:25;0.00;84.34
65122;HTU21D;51701;45.036;38.924;2022-08-19T03:28:50;0.00;83.65
65122;HTU21D;51701;45.036;38.924;2022-08-19T03:31:19;24.70;83.85
65122;HTU21D;51701;45.036;38.924;2022-08-19T03:33:45;24.85;83.10
65122;HTU21D;51701;45.036;38.924;2022-08-19T03:36:12;24.91;82.83
65122;HTU21D;51701;45.036;38.924;2022-08-19T03:38:40;24.99;82.33
65122;HTU21D;51701;45.036;38.924;2022-08-19T03:41:07;24.94;82.17
65122;HTU21D;51701;45.036;38.924;2022-08-19T03:43:34;25.01;82.09
65122;HTU21D;51701;45.036;38.924;2022-08-19T03:46:01;25.23;81.06
65122;HTU21D;51701;45.036;38.924;2022-08-19T03:48:27;25.52;80.18
65122;HTU21D;51701;45.036;38.924;2022-08-19T03:50:55;25.69;78.95
65122;HTU21D;51701;45.036;38.924;2022-08-19T03:53:20;25.95;78.43
65122;HTU21D;51701;45.036;38.924;2022-08-19T03:55:46;26.24;76.49
65122;HTU21D;51701;45.036;38.924;2022-08-19T03:58:12;26.40;76.00
65122;HTU21D;51701;45.036;38.924;2022-08-19T04:00:41;26.75;75.21
65122;HTU21D;51701;45.036;38.924;2022-08-19T04:03:07;27.02;73.06
65122;HTU21D;51701;45.036;38.924;2022-08-19T04:05:33;27.09;73.41
65122;HTU21D;51701;45.036;38.924;2022-08-19T04:07:58;0.00;73.21
